sensor_id;sensor_type;location;lat;lon;timestamp;temperature;humidity
23815;DHT22;12088;53.078;8.720;2022-10-16T00:01:12;12.70;99.90
23815;DHT22;12088;53.078;8.720;2022-10-16T00:03:39;12.70;99.90
23815;DHT22;12088;53.078;8.720;2022-10-16T00:06:06;12.60;99.90
23815;DHT22;12088;53.078;8.720;2022-10-16T00:08:31;12.70;99.90
23815;DHT22;12088;53.078;8.720;2022-10-16T00:11:05;12.70;99.90
23815;DHT22;12088;53.078;8.720;2022-10-16T00:13:32;12.60;99.90
23815;DHT22;12088;53.078;8.720;2022-10-16T00:15:59;12.60;99.90
23815;DHT22;12088;53.078;8.720;2022-10-16T00:18:25;12.60;99.90
23815;DHT22;12088;53.078;8.720;2022-10-16T00:20:51;12.50;99.90
23815;DHT22;12088;53.078;8.720;2022-10-16T00:23:17;12.50;99.90
23815;DHT22;12088;53.078;8.720;2022-10-16T00:25:42;12.50;99.90
23815;DHT22;12088;53.078;8.720;2022-10-16T00:28:08;12.50;99.90
23815;DHT22;12088;53.078;8.720;2022-10-16T00:30:34;12.50;99.90
23815;DHT22;12088;53.078;8.720;2022-10-16T00:33:02;12.50;99.90
23815;DHT22;12088;53.078;8.720;2022-10-16T00:35:28;12.50;99.90
23815;DHT22;12088;53.078;8.720;2022-10-16T00:37:54;12.40;99.90
23815;DHT22;12088;53.078;8.720;2022-10-16T00:40:20;12.40;99.90
23815;DHT22;12088;53.078;8.720;2022-10-16T00:42:45;12.30;99.90
23815;DHT22;12088;53.078;8.720;2022-10-16T00:45:11;12.40;99.90
23815;DHT22;12088;53.078;8.720;2022-10-16T00:47:43;12.40;99.90
23815;DHT22;12088;53.078;8.720;2022-10-16T00:52:48;12.50;99.90
23815;DHT22;12088;53.078;8.720;2022-10-16T00:55:15;12.40;99.90
23815;DHT22;12088;53.078;8.720;2022-10-16T00:57:42;12.40;99.90
23815;DHT22;12088;53.078;8.720;2022-10-16T01:00:10;12.30;99.90
23815;DHT22;12088;53.078;8.720;2022-10-16T01:02:36;12.30;99.90
23815;DHT22;12088;53.078;8.720;2022-10-16T01:05:02;12.20;99.90
23815;DHT22;12088;53.078;8.720;2022-10-16T01:13:14;12.20;99.90
23815;DHT22;12088;53.078;8.720;2022-10-16T01:15:48;12.10;99.90
23815;DHT22;12088;53.078;8.720;2022-10-16T01:18:49;12.10;99.90
23815;DHT22;12088;53.078;8.720;2022-10-16T01:21:22;12.10;99.90
23815;DHT22;12088;53.078;8.720;2022-10-16T01:26:44;12.00;99.90
23815;DHT22;12088;53.078;8.720;2022-10-16T01:29:18;12.00;99.90
23815;DHT22;12088;53.078;8.720;2022-10-16T01:31:50;12.10;99.90
23815;DHT22;12088;53.078;8.720;2022-10-16T01:34:28;12.00;99.90
23815;DHT22;12088;53.078;8.720;2022-10-16T01:37:02;12.00;99.90
23815;DHT22;12088;53.078;8.720;2022-10-16T01:39:32;12.00;99.90
23815;DHT22;12088;53.078;8.720;2022-10-16T01:42:04;11.90;99.90
23815;DHT22;12088;53.078;8.720;2022-10-16T01:44:32;11.90;99.90
23815;DHT22;12088;53.078;8.720;2022-10-16T01:46:59;11.90;99.90
23815;DHT22;12088;53.078;8.720;2022-10-16T01:49:32;11.90;99.90
23815;DHT22;12088;53.078;8.720;2022-10-16T01:52:00;11.90;99.90
23815;DHT22;12088;53.078;8.720;2022-10-16T01:54:28;11.90;99.90
23815;DHT22;12088;53.078;8.720;2022-10-16T01:56:56;12.00;99.90
23815;DHT22;12088;53.078;8.720;2022-10-16T01:59:24;11.90;99.90
23815;DHT22;12088;53.078;8.720;2022-10-16T02:01:54;12.00;99.90
23815;DHT22;12088;53.078;8.720;2022-10-16T02:04:31;12.00;99.90
23815;DHT22;12088;53.078;8.720;2022-10-16T02:06:57;12.00;99.90
23815;DHT22;12088;53.078;8.720;2022-10-16T02:09:23;12.00;99.90
23815;DHT22;12088;53.078;8.720;2022-10-16T02:11:50;12.00;99.90
23815;DHT22;12088;53.078;8.720;2022-10-16T02:14:17;12.00;99.90
23815;DHT22;12088;53.078;8.720;2022-10-16T02:16:45;12.00;99.90
23815;DHT22;12088;53.078;8.720;2022-10-16T02:19:15;11.90;99.90
23815;DHT22;12088;53.078;8.720;2022-10-16T02:24:34;11.80;99.90
23815;DHT22;12088;53.078;8.720;2022-10-16T02:27:09;11.70;99.90
23815;DHT22;12088;53.078;8.720;2022-10-16T02:29:40;11.70;99.90
23815;DHT22;12088;53.078;8.720;2022-10-16T02:32:10;11.70;99.90
23815;DHT22;12088;53.078;8.720;2022-10-16T02:34:39;11.70;99.90
23815;DHT22;12088;53.078;8.720;2022-10-16T02:37:06;11.70;99.90
23815;DHT22;12088;53.078;8.720;2022-10-16T02:39:33;11.70;99.90
23815;DHT22;12088;53.078;8.720;2022-10-16T02:41:59;11.70;99.90
23815;DHT22;12088;53.078;8.720;2022-10-16T02:44:25;11.70;99.90
23815;DHT22;12088;53.078;8.720;2022-10-16T02:46:50;11.70;99.90
23815;DHT22;12088;53.078;8.720;2022-10-16T02:49:16;11.80;99.90
23815;DHT22;12088;53.078;8.720;2022-10-16T02:51:43;11.80;99.90
23815;DHT22;12088;53.078;8.720;2022-10-16T02:54:08;11.70;99.90
23815;DHT22;12088;53.078;8.720;2022-10-16T02:56:34;11.70;99.90
23815;DHT22;12088;53.078;8.720;2022-10-16T02:58:59;11.70;99.90
23815;DHT22;12088;53.078;8.720;2022-10-16T03:01:25;11.70;99.90
23815;DHT22;12088;53.078;8.720;2022-10-16T03:03:50;11.70;99.90
23815;DHT22;12088;53.078;8.720;2022-10-16T03:06:16;11.60;99.90
23815;DHT22;12088;53.078;8.720;2022-10-16T03:08:42;11.70;99.90
23815;DHT22;12088;53.078;8.720;2022-10-16T03:11:07;11.60;99.90
23815;DHT22;12088;53.078;8.720;2022-10-16T03:13:33;11.70;99.90
23815;DHT22;12088;53.078;8.720;2022-10-16T03:15:58;11.70;99.90
23815;DHT22;12088;53.078;8.720;2022-10-16T03:18:24;11.70;99.90
23815;DHT22;12088;53.078;8.720;2022-10-16T03:20:49;11.70;99.90
23815;DHT22;12088;53.078;8.720;2022-10-16T03:23:15;11.70;99.90
23815;DHT22;12088;53.078;8.720;2022-10-16T03:25:40;11.70;99.90
23815;DHT22;12088;53.078;8.720;2022-10-16T03:28:06;11.70;99.90
23815;DHT22;12088;53.078;8.720;2022-10-16T03:30:32;11.70;99.90
23815;DHT22;12088;53.078;8.720;2022-10-16T03:32:57;11.70;99.90
23815;DHT22;12088;53.078;8.720;2022-10-16T03:35:23;11.60;99.90
23815;DHT22;12088;53.078;8.720;2022-10-16T03:37:49;11.60;99.90
23815;DHT22;12088;53.078;8.720;2022-10-16T03:40:16;11.60;99.90
23815;DHT22;12088;53.078;8.720;2022-10-16T03:42:44;11.70;99.90
23815;DHT22;12088;53.078;8.720;2022-10-16T03:45:11;11.60;99.90
23815;DHT22;12088;53.078;8.720;2022-10-16T03:47:37;11.60;99.90
23815;DHT22;12088;53.078;8.720;2022-10-16T03:50:03;11.70;99.90
23815;DHT22;12088;53.078;8.720;2022-10-16T03:52:29;11.60;99.90
23815;DHT22;12088;53.078;8.720;2022-10-16T03:54:55;11.60;99.90
23815;DHT22;12088;53.078;8.720;2022-10-16T03:57:21;11.60;99.90
23815;DHT22;12088;53.078;8.720;2022-10-16T03:59:46;11.60;99.90
23815;DHT22;12088;53.078;8.720;2022-10-16T04:02:12;11.60;99.90
23815;DHT22;12088;53.078;8.720;2022-10-16T04:04:38;11.50;99.90
23815;DHT22;12088;53.078;8.720;2022-10-16T04:07:03;11.50;99.90
23815;DHT22;12088;53.078;8.720;2022-10-16T04:09:29;11.50;99.90
23815;DHT22;12088;53.078;8.720;2022-10-16T04:11:54;11.50;99.90
23815;DHT22;12088;53.078;8.720;2022-10-16T04:14:20;11.50;99.90
23815;DHT22;12088;53.078;8.720;2022-10-16T04:16:45;11.50;99.90
23815;DHT22;12088;53.078;8.720;2022-10-16T04:19:11;11.50;99.90
23815;DHT22;12088;53.078;8.720;2022-10-16T04:21:37;11.50;99.90
23815;DHT22;12088;53.078;8.720;2022-10-16T04:24:02;11.60;99.90
23815;DHT22;12088;53.078;8.720;2022-10-16T04:26:28;11.50;99.90
23815;DHT22;12088;53.078;8.720;2022-10-16T04:28:54;11.50;99.90
23815;DHT22;12088;53.078;8.720;2022-10-16T04:31:20;11.60;99.90
23815;DHT22;12088;53.078;8.720;2022-10-16T04:33:46;11.60;99.90
23815;DHT22;12088;53.078;8.720;2022-10-16T04:36:11;11.60;99.90
23815;DHT22;12088;53.078;8.720;2022-10-16T04:38:37;11.60;99.90
23815;DHT22;12088;53.078;8.720;2022-10-16T04:41:03;11.70;99.90
23815;DHT22;12088;53.078;8.720;2022-10-16T04:43:29;11.70;99.90
23815;DHT22;12088;53.078;8.720;2022-10-16T04:45:54;11.80;99.90
23815;DHT22;12088;53.078;8.720;2022-10-16T04:48:21;11.80;99.90
23815;DHT22;12088;53.078;8.720;2022-10-16T04:50:47;11.80;99.90
23815;DHT22;12088;53.078;8.720;2022-10-16T04:53:12;11.80;99.90
23815;DHT22;12088;53.078;8.720;2022-10-16T04:55:38;11.80;99.90
23815;DHT22;12088;53.078;8.720;2022-10-16T04:58:04;11.90;99.90
23815;DHT22;12088;53.078;8.720;2022-10-16T05:00:30;11.80;99.90
23815;DHT22;12088;53.078;8.720;2022-10-16T05:02:55;11.80;99.90
23815;DHT22;12088;53.078;8.720;2022-10-16T05:05:21;11.80;99.90
23815;DHT22;12088;53.078;8.720;2022-10-16T05:07:47;11.80;99.90
23815;DHT22;12088;53.078;8.720;2022-10-16T05:10:13;11.80;99.90
23815;DHT22;12088;53.078;8.720;2022-10-16T05:12:38;11.80;99.90
23815;DHT22;12088;53.078;8.720;2022-10-16T05:15:04;11.90;99.90
23815;DHT22;12088;53.078;8.720;2022-10-16T05:17:30;12.00;99.90
23815;DHT22;12088;53.078;8.720;2022-10-16T05:19:56;12.10;99.90
23815;DHT22;12088;53.078;8.720;2022-10-16T05:22:21;12.10;99.90
23815;DHT22;12088;53.078;8.720;2022-10-16T05:24:47;12.20;99.90
23815;DHT22;12088;53.078;8.720;2022-10-16T05:27:13;12.30;99.90
23815;DHT22;12088;53.078;8.720;2022-10-16T05:29:47;12.30;99.90
23815;DHT22;12088;53.078;8.720;2022-10-16T05:32:17;12.30;99.90
23815;DHT22;12088;53.078;8.720;2022-10-16T05:34:44;12.30;99.90
23815;DHT22;12088;53.078;8.720;2022-10-16T05:37:10;12.40;99.90
23815;DHT22;12088;53.078;8.720;2022-10-16T05:39:37;12.30;99.90
23815;DHT22;12088;53.078;8.720;2022-10-16T05:42:03;12.40;99.90
23815;DHT22;12088;53.078;8.720;2022-10-16T05:44:29;12.40;99.90
23815;DHT22;12088;53.078;8.720;2022-10-16T05:46:54;12.40;99.90
23815;DHT22;12088;53.078;8.720;2022-10-16T05:49:20;12.40;99.90
23815;DHT22;12088;53.078;8.720;2022-10-16T05:51:45;12.40;99.90
23815;DHT22;12088;53.078;8.720;2022-10-16T05:54:11;12.40;99.90
23815;DHT22;12088;53.078;8.720;2022-10-16T05:56:36;12.40;99.90
23815;DHT22;12088;53.078;8.720;2022-10-16T05:59:03;12.50;99.90
23815;DHT22;12088;53.078;8.720;2022-10-16T06:01:29;12.40;99.90
23815;DHT22;12088;53.078;8.720;2022-10-16T06:03:56;12.40;99.90
23815;DHT22;12088;53.078;8.720;2022-10-16T06:06:24;12.50;99.90
23815;DHT22;12088;53.078;8.720;2022-10-16T06:08:51;12.50;99.90
23815;DHT22;12088;53.078;8.720;2022-10-16T06:11:19;12.50;99.90
23815;DHT22;12088;53.078;8.720;2022-10-16T06:13:49;12.50;99.90
23815;DHT22;12088;53.078;8.720;2022-10-16T06:16:15;12.50;99.90
23815;DHT22;12088;53.078;8.720;2022-10-16T06:18:40;12.50;99.90
23815;DHT22;12088;53.078;8.720;2022-10-16T06:21:17;12.50;99.90
23815;DHT22;12088;53.078;8.720;2022-10-16T06:23:42;12.60;99.90
23815;DHT22;12088;53.078;8.720;2022-10-16T06:26:10;12.60;99.90
23815;DHT22;12088;53.078;8.720;2022-10-16T06:28:37;12.60;99.90
23815;DHT22;12088;53.078;8.720;2022-10-16T06:31:03;12.60;99.90
23815;DHT22;12088;53.078;8.720;2022-10-16T06:33:29;12.60;99.90
23815;DHT22;12088;53.078;8.720;2022-10-16T06:36:04;12.60;99.90
23815;DHT22;12088;53.078;8.720;2022-10-16T06:38:29;12.60;99.90
23815;DHT22;12088;53.078;8.720;2022-10-16T06:40:55;12.50;99.90
23815;DHT22;12088;53.078;8.720;2022-10-16T06:43:21;12.50;99.90
23815;DHT22;12088;53.078;8.720;2022-10-16T06:45:54;12.50;99.90
23815;DHT22;12088;53.078;8.720;2022-10-16T06:48:20;12.50;99.90
23815;DHT22;12088;53.078;8.720;2022-10-16T06:51:17;12.50;99.90
23815;DHT22;12088;53.078;8.720;2022-10-16T06:53:46;12.60;99.90
23815;DHT22;12088;53.078;8.720;2022-10-16T06:56:17;12.60;99.90
23815;DHT22;12088;53.078;8.720;2022-10-16T06:58:43;12.60;99.90
23815;DHT22;12088;53.078;8.720;2022-10-16T07:01:10;12.70;99.90
23815;DHT22;12088;53.078;8.720;2022-10-16T07:03:37;12.80;99.90
23815;DHT22;12088;53.078;8.720;2022-10-16T07:06:04;12.70;99.90
23815;DHT22;12088;53.078;8.720;2022-10-16T07:08:32;12.80;99.90
23815;DHT22;12088;53.078;8.720;2022-10-16T07:11:06;12.90;99.90
23815;DHT22;12088;53.078;8.720;2022-10-16T07:13:35;13.00;99.90
23815;DHT22;12088;53.078;8.720;2022-10-16T07:16:16;13.00;99.90
23815;DHT22;12088;53.078;8.720;2022-10-16T07:18:42;13.00;99.90
23815;DHT22;12088;53.078;8.720;2022-10-16T07:21:13;13.10;99.90
23815;DHT22;12088;53.078;8.720;2022-10-16T07:23:39;13.20;99.90
23815;DHT22;12088;53.078;8.720;2022-10-16T07:26:06;13.40;99.90
23815;DHT22;12088;53.078;8.720;2022-10-16T07:28:33;13.50;99.90
23815;DHT22;12088;53.078;8.720;2022-10-16T07:31:02;13.60;99.90
23815;DHT22;12088;53.078;8.720;2022-10-16T07:33:29;13.90;99.90
23815;DHT22;12088;53.078;8.720;2022-10-16T07:35:55;13.90;99.90
23815;DHT22;12088;53.078;8.720;2022-10-16T07:38:21;14.00;99.90
23815;DHT22;12088;53.078;8.720;2022-10-16T07:40:47;13.90;99.90
23815;DHT22;12088;53.078;8.720;2022-10-16T07:43:14;13.90;99.90
23815;DHT22;12088;53.078;8.720;2022-10-16T07:45:50;13.80;99.90
23815;DHT22;12088;53.078;8.720;2022-10-16T07:48:16;13.80;99.90
23815;DHT22;12088;53.078;8.720;2022-10-16T07:50:43;13.70;99.90
23815;DHT22;12088;53.078;8.720;2022-10-16T07:53:09;13.70;99.90
23815;DHT22;12088;53.078;8.720;2022-10-16T07:55:35;13.70;99.90
23815;DHT22;12088;53.078;8.720;2022-10-16T07:58:01;13.80;99.90
23815;DHT22;12088;53.078;8.720;2022-10-16T08:00:26;13.90;99.90
23815;DHT22;12088;53.078;8.720;2022-10-16T08:02:52;14.20;99.90
23815;DHT22;12088;53.078;8.720;2022-10-16T08:05:17;14.30;99.90
23815;DHT22;12088;53.078;8.720;2022-10-16T08:07:47;14.50;99.90
23815;DHT22;12088;53.078;8.720;2022-10-16T08:10:18;14.40;99.90
23815;DHT22;12088;53.078;8.720;2022-10-16T08:12:44;14.50;99.90
23815;DHT22;12088;53.078;8.720;2022-10-16T08:15:10;14.60;99.90
23815;DHT22;12088;53.078;8.720;2022-10-16T08:17:35;14.90;99.90
23815;DHT22;12088;53.078;8.720;2022-10-16T08:20:01;15.00;99.90
23815;DHT22;12088;53.078;8.720;2022-10-16T08:22:27;15.00;99.90
23815;DHT22;12088;53.078;8.720;2022-10-16T08:24:52;15.20;99.90
23815;DHT22;12088;53.078;8.720;2022-10-16T08:27:18;15.10;99.90
23815;DHT22;12088;53.078;8.720;2022-10-16T08:29:43;14.90;99.90
23815;DHT22;12088;53.078;8.720;2022-10-16T08:32:09;15.10;99.90
23815;DHT22;12088;53.078;8.720;2022-10-16T08:34:34;15.30;99.90
23815;DHT22;12088;53.078;8.720;2022-10-16T08:37:00;15.40;99.90
23815;DHT22;12088;53.078;8.720;2022-10-16T08:39:25;15.90;99.90
23815;DHT22;12088;53.078;8.720;2022-10-16T08:42:09;16.50;99.90
23815;DHT22;12088;53.078;8.720;2022-10-16T08:47:26;17.10;99.90
23815;DHT22;12088;53.078;8.720;2022-10-16T08:50:00;16.50;99.90
23815;DHT22;12088;53.078;8.720;2022-10-16T08:52:30;17.10;99.90
23815;DHT22;12088;53.078;8.720;2022-10-16T08:54:58;17.50;99.90
23815;DHT22;12088;53.078;8.720;2022-10-16T08:57:25;17.80;99.90
23815;DHT22;12088;53.078;8.720;2022-10-16T08:59:52;18.00;99.90
23815;DHT22;12088;53.078;8.720;2022-10-16T09:02:36;18.40;99.90
23815;DHT22;12088;53.078;8.720;2022-10-16T09:10:57;19.50;99.90
23815;DHT22;12088;53.078;8.720;2022-10-16T09:13:46;20.00;99.90
23815;DHT22;12088;53.078;8.720;2022-10-16T09:16:30;19.70;99.90
23815;DHT22;12088;53.078;8.720;2022-10-16T09:19:20;20.60;99.90
23815;DHT22;12088;53.078;8.720;2022-10-16T09:21:48;21.20;99.90
23815;DHT22;12088;53.078;8.720;2022-10-16T09:24:25;21.10;99.90
23815;DHT22;12088;53.078;8.720;2022-10-16T09:26:51;20.20;99.90
23815;DHT22;12088;53.078;8.720;2022-10-16T09:29:19;18.80;99.90
23815;DHT22;12088;53.078;8.720;2022-10-16T09:31:46;17.90;99.90
23815;DHT22;12088;53.078;8.720;2022-10-16T09:36:52;17.30;99.90
23815;DHT22;12088;53.078;8.720;2022-10-16T09:39:17;17.10;99.90
23815;DHT22;12088;53.078;8.720;2022-10-16T09:41:45;16.90;99.90
23815;DHT22;12088;53.078;8.720;2022-10-16T09:44:30;17.20;99.90
23815;DHT22;12088;53.078;8.720;2022-10-16T09:47:05;17.40;99.90
23815;DHT22;12088;53.078;8.720;2022-10-16T09:49:30;17.60;99.90
23815;DHT22;12088;53.078;8.720;2022-10-16T09:52:12;17.60;99.90
23815;DHT22;12088;53.078;8.720;2022-10-16T09:54:49;19.10;99.90
23815;DHT22;12088;53.078;8.720;2022-10-16T09:57:15;21.10;99.90
23815;DHT22;12088;53.078;8.720;2022-10-16T09:59:49;21.80;99.90
23815;DHT22;12088;53.078;8.720;2022-10-16T10:02:17;21.90;99.90
23815;DHT22;12088;53.078;8.720;2022-10-16T10:04:53;22.30;99.90
23815;DHT22;12088;53.078;8.720;2022-10-16T10:07:43;22.90;99.90
23815;DHT22;12088;53.078;8.720;2022-10-16T10:10:24;23.50;99.90
23815;DHT22;12088;53.078;8.720;2022-10-16T10:12:50;23.80;99.90
23815;DHT22;12088;53.078;8.720;2022-10-16T10:15:16;24.20;99.90
23815;DHT22;12088;53.078;8.720;2022-10-16T10:17:51;23.90;99.90
23815;DHT22;12088;53.078;8.720;2022-10-16T10:20:29;23.30;99.90
23815;DHT22;12088;53.078;8.720;2022-10-16T10:22:56;23.70;99.90
23815;DHT22;12088;53.078;8.720;2022-10-16T10:25:39;23.80;99.90
23815;DHT22;12088;53.078;8.720;2022-10-16T10:31:00;23.40;99.90
23815;DHT22;12088;53.078;8.720;2022-10-16T10:33:49;23.30;99.90
23815;DHT22;12088;53.078;8.720;2022-10-16T10:39:00;22.60;99.90
23815;DHT22;12088;53.078;8.720;2022-10-16T10:46:44;25.50;99.90
23815;DHT22;12088;53.078;8.720;2022-10-16T10:57:54;22.70;99.90
23815;DHT22;12088;53.078;8.720;2022-10-16T11:06:29;24.50;99.90
23815;DHT22;12088;53.078;8.720;2022-10-16T11:09:07;25.50;99.90
23815;DHT22;12088;53.078;8.720;2022-10-16T11:11:44;25.90;99.90
23815;DHT22;12088;53.078;8.720;2022-10-16T11:14:20;25.90;99.90
23815;DHT22;12088;53.078;8.720;2022-10-16T11:16:56;25.20;99.90
23815;DHT22;12088;53.078;8.720;2022-10-16T11:22:34;24.80;99.90
23815;DHT22;12088;53.078;8.720;2022-10-16T11:25:20;25.10;99.90
23815;DHT22;12088;53.078;8.720;2022-10-16T11:28:03;25.90;99.90
23815;DHT22;12088;53.078;8.720;2022-10-16T11:30:55;26.70;99.90
23815;DHT22;12088;53.078;8.720;2022-10-16T11:33:32;26.30;99.90
23815;DHT22;12088;53.078;8.720;2022-10-16T11:36:21;25.60;99.90
23815;DHT22;12088;53.078;8.720;2022-10-16T11:39:03;25.80;99.90
23815;DHT22;12088;53.078;8.720;2022-10-16T11:41:47;25.90;99.90
23815;DHT22;12088;53.078;8.720;2022-10-16T11:47:19;22.20;99.90
23815;DHT22;12088;53.078;8.720;2022-10-16T11:49:50;21.70;99.90
23815;DHT22;12088;53.078;8.720;2022-10-16T11:52:25;20.70;99.90
23815;DHT22;12088;53.078;8.720;2022-10-16T11:57:33;19.80;99.90
23815;DHT22;12088;53.078;8.720;2022-10-16T12:00:08;20.10;99.90
23815;DHT22;12088;53.078;8.720;2022-10-16T12:02:58;20.30;99.90
23815;DHT22;12088;53.078;8.720;2022-10-16T12:08:18;21.00;99.90
23815;DHT22;12088;53.078;8.720;2022-10-16T12:10:46;21.70;99.90
23815;DHT22;12088;53.078;8.720;2022-10-16T12:13:39;22.00;99.90
23815;DHT22;12088;53.078;8.720;2022-10-16T12:18:40;22.60;99.90
23815;DHT22;12088;53.078;8.720;2022-10-16T12:21:07;22.30;99.90
23815;DHT22;12088;53.078;8.720;2022-10-16T12:23:38;22.00;99.90
23815;DHT22;12088;53.078;8.720;2022-10-16T12:26:04;21.10;99.90
23815;DHT22;12088;53.078;8.720;2022-10-16T12:28:32;20.70;99.90
23815;DHT22;12088;53.078;8.720;2022-10-16T12:31:04;20.70;99.90
23815;DHT22;12088;53.078;8.720;2022-10-16T12:36:02;20.60;99.90
23815;DHT22;12088;53.078;8.720;2022-10-16T12:38:46;20.60;99.90
23815;DHT22;12088;53.078;8.720;2022-10-16T12:41:12;21.00;99.90
23815;DHT22;12088;53.078;8.720;2022-10-16T12:43:40;21.10;99.90
23815;DHT22;12088;53.078;8.720;2022-10-16T12:48:36;21.40;99.90
23815;DHT22;12088;53.078;8.720;2022-10-16T12:56:45;21.10;99.90
23815;DHT22;12088;53.078;8.720;2022-10-16T13:05:24;21.20;99.90
23815;DHT22;12088;53.078;8.720;2022-10-16T13:18:29;24.40;99.90
23815;DHT22;12088;53.078;8.720;2022-10-16T13:21:04;24.60;99.90
23815;DHT22;12088;53.078;8.720;2022-10-16T13:23:44;24.40;99.90
23815;DHT22;12088;53.078;8.720;2022-10-16T13:26:23;24.30;99.90
23815;DHT22;12088;53.078;8.720;2022-10-16T13:28:52;24.40;99.90
23815;DHT22;12088;53.078;8.720;2022-10-16T13:31:20;24.50;99.90
23815;DHT22;12088;53.078;8.720;2022-10-16T13:33:50;24.50;99.90
23815;DHT22;12088;53.078;8.720;2022-10-16T13:36:26;25.00;99.90
23815;DHT22;12088;53.078;8.720;2022-10-16T13:39:12;24.70;99.90
23815;DHT22;12088;53.078;8.720;2022-10-16T13:41:38;24.10;99.90
23815;DHT22;12088;53.078;8.720;2022-10-16T13:44:05;23.10;99.90
23815;DHT22;12088;53.078;8.720;2022-10-16T13:46:36;22.50;99.90
23815;DHT22;12088;53.078;8.720;2022-10-16T13:49:04;21.90;99.90
23815;DHT22;12088;53.078;8.720;2022-10-16T13:51:31;21.40;99.90
23815;DHT22;12088;53.078;8.720;2022-10-16T13:53:58;21.20;99.90
23815;DHT22;12088;53.078;8.720;2022-10-16T13:56:29;21.20;99.90
23815;DHT22;12088;53.078;8.720;2022-10-16T13:59:05;20.90;99.90
23815;DHT22;12088;53.078;8.720;2022-10-16T14:01:42;20.80;99.90
23815;DHT22;12088;53.078;8.720;2022-10-16T14:04:11;20.50;99.90
23815;DHT22;12088;53.078;8.720;2022-10-16T14:06:41;20.40;99.90
23815;DHT22;12088;53.078;8.720;2022-10-16T14:09:24;20.30;99.90
23815;DHT22;12088;53.078;8.720;2022-10-16T14:11:54;20.30;99.90
23815;DHT22;12088;53.078;8.720;2022-10-16T14:14:21;20.30;99.90
23815;DHT22;12088;53.078;8.720;2022-10-16T14:16:48;20.00;99.90
23815;DHT22;12088;53.078;8.720;2022-10-16T14:19:20;19.70;99.90
23815;DHT22;12088;53.078;8.720;2022-10-16T14:21:46;19.60;99.90
23815;DHT22;12088;53.078;8.720;2022-10-16T14:24:13;19.50;99.90
23815;DHT22;12088;53.078;8.720;2022-10-16T14:26:43;19.30;99.90
23815;DHT22;12088;53.078;8.720;2022-10-16T14:29:18;19.10;99.90
23815;DHT22;12088;53.078;8.720;2022-10-16T14:31:58;19.00;99.90
23815;DHT22;12088;53.078;8.720;2022-10-16T14:34:32;18.80;99.90
23815;DHT22;12088;53.078;8.720;2022-10-16T14:37:22;18.70;99.90
23815;DHT22;12088;53.078;8.720;2022-10-16T14:39:49;18.70;99.90
23815;DHT22;12088;53.078;8.720;2022-10-16T14:42:17;18.60;99.90
23815;DHT22;12088;53.078;8.720;2022-10-16T14:44:45;18.60;99.90
23815;DHT22;12088;53.078;8.720;2022-10-16T14:47:15;18.60;99.90
23815;DHT22;12088;53.078;8.720;2022-10-16T14:49:42;18.60;99.90
23815;DHT22;12088;53.078;8.720;2022-10-16T14:52:11;18.40;99.90
23815;DHT22;12088;53.078;8.720;2022-10-16T14:54:37;18.50;99.90
23815;DHT22;12088;53.078;8.720;2022-10-16T14:57:03;18.40;99.90
23815;DHT22;12088;53.078;8.720;2022-10-16T14:59:40;18.30;99.90
23815;DHT22;12088;53.078;8.720;2022-10-16T15:02:38;18.20;99.90
23815;DHT22;12088;53.078;8.720;2022-10-16T15:05:25;18.00;99.90
23815;DHT22;12088;53.078;8.720;2022-10-16T15:07:52;17.80;99.90
23815;DHT22;12088;53.078;8.720;2022-10-16T15:10:20;17.80;99.90
23815;DHT22;12088;53.078;8.720;2022-10-16T15:12:46;17.50;99.90
23815;DHT22;12088;53.078;8.720;2022-10-16T15:17:53;17.40;99.90
23815;DHT22;12088;53.078;8.720;2022-10-16T15:20:25;17.20;99.90
23815;DHT22;12088;53.078;8.720;2022-10-16T15:22:50;17.10;99.90
23815;DHT22;12088;53.078;8.720;2022-10-16T15:28:02;16.80;99.90
23815;DHT22;12088;53.078;8.720;2022-10-16T15:30:28;16.70;99.90
23815;DHT22;12088;53.078;8.720;2022-10-16T15:32:54;16.60;99.90
23815;DHT22;12088;53.078;8.720;2022-10-16T15:35:19;16.50;99.90
23815;DHT22;12088;53.078;8.720;2022-10-16T15:37:46;16.50;99.90
23815;DHT22;12088;53.078;8.720;2022-10-16T15:40:13;16.60;99.90
23815;DHT22;12088;53.078;8.720;2022-10-16T15:42:39;16.40;99.90
23815;DHT22;12088;53.078;8.720;2022-10-16T15:45:05;16.30;99.90
23815;DHT22;12088;53.078;8.720;2022-10-16T15:47:32;16.20;99.90
23815;DHT22;12088;53.078;8.720;2022-10-16T15:49:57;16.20;99.90
23815;DHT22;12088;53.078;8.720;2022-10-16T15:52:23;16.00;99.90
23815;DHT22;12088;53.078;8.720;2022-10-16T15:54:48;15.90;99.90
23815;DHT22;12088;53.078;8.720;2022-10-16T15:57:14;15.70;99.90
23815;DHT22;12088;53.078;8.720;2022-10-16T15:59:39;15.60;99.90
23815;DHT22;12088;53.078;8.720;2022-10-16T16:02:05;15.50;99.90
23815;DHT22;12088;53.078;8.720;2022-10-16T16:04:30;15.40;99.90
23815;DHT22;12088;53.078;8.720;2022-10-16T16:06:56;15.30;99.90
23815;DHT22;12088;53.078;8.720;2022-10-16T16:09:25;15.20;99.90
23815;DHT22;12088;53.078;8.720;2022-10-16T16:11:50;15.10;99.90
23815;DHT22;12088;53.078;8.720;2022-10-16T16:14:17;15.00;99.90
23815;DHT22;12088;53.078;8.720;2022-10-16T16:16:43;14.90;99.90
23815;DHT22;12088;53.078;8.720;2022-10-16T16:19:08;14.80;99.90
23815;DHT22;12088;53.078;8.720;2022-10-16T16:21:34;14.70;99.90
23815;DHT22;12088;53.078;8.720;2022-10-16T16:24:00;14.60;99.90
23815;DHT22;12088;53.078;8.720;2022-10-16T16:26:27;14.60;99.90
23815;DHT22;12088;53.078;8.720;2022-10-16T16:28:55;14.50;99.90
23815;DHT22;12088;53.078;8.720;2022-10-16T16:31:24;14.40;99.90
23815;DHT22;12088;53.078;8.720;2022-10-16T16:33:50;14.30;99.90
23815;DHT22;12088;53.078;8.720;2022-10-16T16:36:17;14.20;99.90
23815;DHT22;12088;53.078;8.720;2022-10-16T16:38:46;14.20;99.90
23815;DHT22;12088;53.078;8.720;2022-10-16T16:41:20;14.10;99.90
23815;DHT22;12088;53.078;8.720;2022-10-16T16:43:46;14.00;99.90
23815;DHT22;12088;53.078;8.720;2022-10-16T16:46:13;13.90;99.90
23815;DHT22;12088;53.078;8.720;2022-10-16T16:48:39;13.70;99.90
23815;DHT22;12088;53.078;8.720;2022-10-16T16:51:07;13.70;99.90
23815;DHT22;12088;53.078;8.720;2022-10-16T16:53:34;13.60;99.90
23815;DHT22;12088;53.078;8.720;2022-10-16T16:56:04;13.50;99.90
23815;DHT22;12088;53.078;8.720;2022-10-16T16:58:30;13.50;99.90
23815;DHT22;12088;53.078;8.720;2022-10-16T17:00:56;13.50;99.90
23815;DHT22;12088;53.078;8.720;2022-10-16T17:03:26;13.50;99.90
23815;DHT22;12088;53.078;8.720;2022-10-16T17:06:00;13.40;99.90
23815;DHT22;12088;53.078;8.720;2022-10-16T17:08:26;13.40;99.90
23815;DHT22;12088;53.078;8.720;2022-10-16T17:10:51;13.30;99.90
23815;DHT22;12088;53.078;8.720;2022-10-16T17:13:27;13.10;99.90
23815;DHT22;12088;53.078;8.720;2022-10-16T17:15:53;13.00;99.90
23815;DHT22;12088;53.078;8.720;2022-10-16T17:18:20;12.90;99.90
23815;DHT22;12088;53.078;8.720;2022-10-16T17:20:47;12.80;99.90